Time;durP1;ratioP1;P1;durP2;ratioP2;P2;SDS_P1;SDS_P2;PMS_P1;PMS_P2;Temp;Humidity;BMP_temperature;BMP_pressure;BME280_temperature;BME280_humidity;BME280_pressure;Samples;Min_cycle;Max_cycle;Signal;HPM_P1;HPM_P2
2023/11/12 00:00:50;;;;;;;1999.90;999.90;;;6.20;99.90;;;;;;5043840;28;20029;-69
2023/11/12 00:03:16;;;;;;;1999.90;999.90;;;6.20;99.90;;;;;;5053549;28;20050;-69
2023/11/12 00:05:42;;;;;;;1999.90;999.90;;;6.30;99.90;;;;;;5046779;28;20037;-69
2023/11/12 00:08:08;;;;;;;1999.90;999.90;;;6.30;99.90;;;;;;5051599;28;20039;-70
2023/11/12 00:10:34;;;;;;;1999.90;999.90;;;6.30;99.90;;;;;;5053634;28;20063;-74
2023/11/12 00:13:00;;;;;;;1999.90;999.90;;;6.20;99.90;;;;;;5053473;28;20487;-69
2023/11/12 00:15:26;;;;;;;1999.90;999.90;;;6.30;99.90;;;;;;5054135;28;20120;-69
2023/11/12 00:17:52;;;;;;;1999.90;999.90;;;6.20;99.90;;;;;;5051216;28;20025;-69
2023/11/12 00:20:18;;;;;;;1999.90;999.90;;;6.20;99.90;;;;;;5056382;28;20047;-69
2023/11/12 00:22:43;;;;;;;1999.90;999.90;;;6.10;99.90;;;;;;5054512;28;20029;-69
2023/11/12 00:25:10;;;;;;;1999.90;999.90;;;6.00;99.90;;;;;;5054871;28;20037;-69
2023/11/12 00:27:36;;;;;;;1999.90;999.90;;;6.00;99.90;;;;;;5051309;28;20104;-76
2023/11/12 00:30:04;;;;;;;1999.90;999.90;;;6.00;99.90;;;;;;5046325;28;20033;-69
2023/11/12 00:32:29;;;;;;;1999.90;999.90;;;6.10;99.90;;;;;;5052790;28;20029;-69
2023/11/12 00:34:55;;;;;;;1999.90;999.90;;;6.00;99.90;;;;;;5050632;28;20431;-69
2023/11/12 00:37:21;;;;;;;1999.90;999.90;;;6.00;99.90;;;;;;5056236;28;20025;-69
2023/11/12 00:39:47;;;;;;;1999.90;999.90;;;6.00;99.90;;;;;;5047126;28;20458;-69
2023/11/12 00:42:13;;;;;;;1999.90;999.90;;;6.00;99.90;;;;;;5047641;28;20368;-69
2023/11/12 00:44:40;;;;;;;1999.90;999.90;;;5.90;99.90;;;;;;5053089;28;20320;-68
2023/11/12 00:47:06;;;;;;;1999.90;999.90;;;5.80;99.90;;;;;;5048261;28;20400;-69
2023/11/12 00:49:32;;;;;;;1999.90;999.90;;;5.70;99.90;;;;;;5047929;28;20110;-69
2023/11/12 00:51:57;;;;;;;1999.90;999.90;;;5.70;99.90;;;;;;5054792;28;20451;-69
2023/11/12 00:54:23;;;;;;;1999.90;999.90;;;5.70;99.90;;;;;;5051077;28;20032;-69
2023/11/12 00:56:49;;;;;;;1999.90;999.90;;;5.80;99.90;;;;;;5051328;28;20021;-69
2023/11/12 00:59:14;;;;;;;1999.90;999.90;;;5.80;99.90;;;;;;5055655;28;20025;-69
2023/11/12 01:01:40;;;;;;;1999.90;999.90;;;5.90;99.90;;;;;;5054976;28;20438;-69
2023/11/12 01:04:06;;;;;;;1999.90;999.90;;;6.00;99.90;;;;;;5042682;28;20120;-70
2023/11/12 01:06:33;;;;;;;1999.90;999.90;;;6.10;99.90;;;;;;5050775;28;20059;-69
2023/11/12 01:08:59;;;;;;;;;;;6.20;99.90;;;;;;5046892;28;20033;-69
2023/11/12 01:11:24;;;;;;;1999.90;999.90;;;6.20;99.90;;;;;;5053634;28;19970;-69
2023/11/12 01:13:50;;;;;;;1999.90;999.90;;;6.30;99.90;;;;;;5049204;28;20033;-69
2023/11/12 01:16:16;;;;;;;1999.90;999.90;;;6.20;99.90;;;;;;5052272;28;20029;-69
2023/11/12 01:18:42;;;;;;;1999.90;999.90;;;6.10;99.90;;;;;;5055253;28;20064;-69
2023/11/12 01:21:08;;;;;;;1999.90;999.90;;;6.00;99.90;;;;;;5043318;28;20030;-69
2023/11/12 01:23:34;;;;;;;;;;;6.00;99.90;;;;;;5050033;28;20048;-69
2023/11/12 01:26:00;;;;;;;1999.90;999.90;;;6.10;99.90;;;;;;5054903;28;20602;-77
2023/11/12 01:28:29;;;;;;;1999.90;999.90;;;6.20;99.90;;;;;;5052605;28;20041;-69
2023/11/12 01:30:55;;;;;;;1999.90;999.90;;;6.20;99.90;;;;;;5052848;28;20123;-69
2023/11/12 01:33:21;;;;;;;1999.90;999.90;;;6.20;99.90;;;;;;5049915;28;20694;-78
2023/11/12 01:35:47;;;;;;;1999.90;999.90;;;6.20;99.90;;;;;;5049332;28;20056;-69
2023/11/12 01:38:12;;;;;;;1999.90;999.90;;;6.20;99.90;;;;;;5047377;28;20021;-69
2023/11/12 01:40:41;;;;;;;1999.90;999.90;;;6.20;99.90;;;;;;5050112;28;20090;-69
2023/11/12 01:43:09;;;;;;;1999.90;999.90;;;6.20;99.90;;;;;;5053891;28;20035;-69
2023/11/12 01:45:35;;;;;;;1999.90;999.90;;;6.20;99.90;;;;;;5052417;28;20021;-69
2023/11/12 01:48:03;;;;;;;1999.90;999.90;;;6.20;99.90;;;;;;5048395;28;20033;-69
2023/11/12 01:50:29;;;;;;;1999.90;999.90;;;6.10;99.90;;;;;;5051794;28;20028;-69
2023/11/12 01:52:56;;;;;;;1999.90;999.90;;;6.00;99.90;;;;;;5047164;28;20048;-69
2023/11/12 01:55:25;;;;;;;1999.90;999.90;;;6.10;99.90;;;;;;5047836;28;20029;-69
2023/11/12 01:57:52;;;;;;;1999.90;999.90;;;6.00;99.90;;;;;;5052708;28;20051;-69
2023/11/12 02:00:19;;;;;;;1999.90;999.90;;;6.00;99.90;;;;;;5047565;28;20063;-69
2023/11/12 02:02:45;;;;;;;1999.90;999.90;;;5.90;99.90;;;;;;5052865;28;20029;-69
2023/11/12 02:05:11;;;;;;;1999.90;999.90;;;5.90;99.90;;;;;;5045863;28;20036;-69
2023/11/12 02:07:42;;;;;;;1999.90;999.90;;;5.90;99.90;;;;;;5050502;28;20035;-69
2023/11/12 02:10:16;;;;;;;1999.90;999.90;;;5.90;99.90;;;;;;5048876;28;20025;-70
2023/11/12 02:12:46;;;;;;;1999.90;999.90;;;5.90;99.90;;;;;;5047080;28;20436;-69
2023/11/12 02:15:17;;;;;;;1999.90;999.90;;;5.90;99.90;;;;;;5051849;28;20039;-70
2023/11/12 02:17:44;;;;;;;1999.90;999.90;;;5.90;99.90;;;;;;5046122;28;20029;-77
2023/11/12 02:20:20;;;;;;;;;;;5.80;99.90;;;;;;5053909;28;20025;-77
2023/11/12 02:22:46;;;;;;;1999.90;999.90;;;5.80;99.90;;;;;;5051505;28;19908;-78
2023/11/12 02:25:13;;;;;;;1999.90;999.90;;;5.80;99.90;;;;;;5047919;28;20036;-69
2023/11/12 02:27:39;;;;;;;1999.90;999.90;;;5.80;99.90;;;;;;5047874;28;20055;-69
2023/11/12 02:30:08;;;;;;;1999.90;999.90;;;5.80;99.90;;;;;;5050141;28;20056;-70
2023/11/12 02:32:34;;;;;;;1999.90;999.90;;;5.80;99.90;;;;;;5053540;28;20483;-69
2023/11/12 02:35:02;;;;;;;1999.90;999.90;;;5.90;99.90;;;;;;5049640;28;20029;-69
2023/11/12 02:37:28;;;;;;;1999.90;999.90;;;5.90;99.90;;;;;;5050283;28;20090;-69
2023/11/12 02:39:54;;;;;;;1999.90;999.90;;;6.00;99.90;;;;;;5044731;28;20416;-70
2023/11/12 02:42:21;;;;;;;1999.90;999.90;;;6.00;99.90;;;;;;5044940;28;20056;-69
2023/11/12 02:44:50;;;;;;;1999.90;999.90;;;6.00;99.90;;;;;;5051457;28;20040;-77
2023/11/12 02:47:16;;;;;;;1999.90;999.90;;;6.00;99.90;;;;;;5045228;28;20033;-69
2023/11/12 02:50:10;;;;;;;1999.90;999.90;;;6.00;99.90;;;;;;5042387;28;20037;-69
2023/11/12 02:52:36;;;;;;;1999.90;999.90;;;6.00;99.90;;;;;;5051668;28;20041;-69
2023/11/12 02:55:02;;;;;;;1999.90;999.90;;;5.90;99.90;;;;;;5044360;28;20033;-78
2023/11/12 02:57:27;;;;;;;1999.90;999.90;;;5.90;99.90;;;;;;5051332;28;20028;-69
2023/11/12 02:59:54;;;;;;;1999.90;999.90;;;6.00;99.90;;;;;;5049804;28;20025;-69
2023/11/12 03:02:20;;;;;;;1999.90;999.90;;;6.00;99.90;;;;;;5046496;28;20107;-69
2023/11/12 03:04:49;;;;;;;1999.90;999.90;;;6.00;99.90;;;;;;5048011;28;20116;-69
2023/11/12 03:07:15;;;;;;;1999.90;999.90;;;6.10;99.90;;;;;;5045280;28;20032;-70
2023/11/12 03:09:41;;;;;;;1999.90;999.90;;;6.10;99.90;;;;;;5042647;28;20033;-69
2023/11/12 03:12:06;;;;;;;1999.90;999.90;;;6.10;99.90;;;;;;5046327;28;20033;-70
2023/11/12 03:14:33;;;;;;;1999.90;999.90;;;6.20;99.90;;;;;;5041387;28;20029;-69
2023/11/12 03:16:59;;;;;;;1999.90;999.90;;;6.20;99.90;;;;;;5043482;28;20075;-69
2023/11/12 03:19:25;;;;;;;1999.90;999.90;;;6.20;99.90;;;;;;5038605;28;20045;-77
2023/11/12 03:21:52;;;;;;;1999.90;999.90;;;6.20;99.90;;;;;;5049498;28;20037;-77
2023/11/12 03:24:24;;;;;;;1999.90;999.90;;;6.30;99.90;;;;;;5050790;28;20037;-78
2023/11/12 03:26:50;;;;;;;1999.90;999.90;;;6.30;99.90;;;;;;5051423;28;20309;-69
2023/11/12 03:29:17;;;;;;;1999.90;999.90;;;6.40;99.90;;;;;;5050941;28;20081;-69
2023/11/12 03:31:44;;;;;;;1999.90;999.90;;;6.40;99.90;;;;;;5045751;28;20076;-78
2023/11/12 03:34:13;;;;;;;1999.90;999.90;;;6.40;99.90;;;;;;5051321;28;20419;-70
2023/11/12 03:36:38;;;;;;;1999.90;999.90;;;6.40;99.90;;;;;;5046426;28;20036;-69
2023/11/12 03:39:04;;;;;;;1999.90;999.90;;;6.40;99.90;;;;;;5056009;28;20033;-70
2023/11/12 03:41:30;;;;;;;1999.90;999.90;;;6.40;99.90;;;;;;5053914;28;20025;-69
2023/11/12 03:43:56;;;;;;;1999.90;999.90;;;6.40;99.90;;;;;;5055795;28;20111;-69
2023/11/12 03:46:21;;;;;;;1999.90;999.90;;;6.40;99.90;;;;;;5054937;28;20068;-69
2023/11/12 03:48:47;;;;;;;1999.90;999.90;;;6.40;99.90;;;;;;5053545;28;20032;-78
2023/11/12 03:51:13;;;;;;;1999.90;999.90;;;6.40;99.90;;;;;;5056386;28;20107;-69
2023/11/12 03:53:39;;;;;;;1999.90;999.90;;;6.50;99.90;;;;;;5054455;28;20032;-69
2023/11/12 03:56:05;;;;;;;1999.90;999.90;;;6.50;99.90;;;;;;5049642;28;20578;-70
2023/11/12 03:58:33;;;;;;;1999.90;999.90;;;6.60;99.90;;;;;;5040271;28;20029;-71
2023/11/12 04:00:59;;;;;;;1999.90;999.90;;;6.60;99.90;;;;;;5047249;28;20059;-69
2023/11/12 04:03:27;;;;;;;1999.90;999.90;;;6.70;99.90;;;;;;5051850;28;20028;-69
2023/11/12 04:05:53;;;;;;;1999.90;999.90;;;6.70;99.90;;;;;;5051024;28;20029;-79
2023/11/12 04:08:19;;;;;;;1999.90;999.90;;;6.70;99.90;;;;;;5052525;28;20100;-70
2023/11/12 04:10:46;;;;;;;1999.90;999.90;;;6.70;99.90;;;;;;5048935;28;20033;-69
2023/11/12 04:13:12;;;;;;;1999.90;999.90;;;6.70;99.90;;;;;;5052685;28;20053;-69
2023/11/12 04:15:38;;;;;;;1999.90;999.90;;;6.70;99.90;;;;;;5053090;28;20055;-69
2023/11/12 04:18:03;;;;;;;1999.90;999.90;;;6.70;99.90;;;;;;5050687;28;20090;-78
2023/11/12 04:20:31;;;;;;;1999.90;999.90;;;6.70;99.90;;;;;;5053195;28;20029;-69
2023/11/12 04:22:57;;;;;;;1999.90;999.90;;;6.60;99.90;;;;;;5049196;28;20055;-69
2023/11/12 04:25:23;;;;;;;1999.90;999.90;;;6.70;99.90;;;;;;5053121;28;20420;-69
2023/11/12 04:27:49;;;;;;;1999.90;999.90;;;6.70;99.90;;;;;;5052206;28;20275;-69
2023/11/12 04:30:16;;;;;;;1999.90;999.90;;;6.70;99.90;;;;;;5052271;28;20029;-70
2023/11/12 04:32:44;;;;;;;;;;;6.70;99.90;;;;;;5052864;28;20072;-69
2023/11/12 04:35:13;;;;;;;1999.90;999.90;;;6.70;99.90;;;;;;5049045;28;20209;-69
2023/11/12 04:37:39;;;;;;;1999.90;999.90;;;6.70;99.90;;;;;;5048130;28;20103;-69
2023/11/12 04:40:09;;;;;;;1999.90;999.90;;;6.70;99.90;;;;;;5047490;28;20021;-70
2023/11/12 04:42:35;;;;;;;1999.90;999.90;;;6.70;99.90;;;;;;5042242;28;20033;-69
2023/11/12 04:45:02;;;;;;;1999.90;999.90;;;6.70;99.90;;;;;;5048261;28;20037;-69
2023/11/12 04:47:28;;;;;;;1999.90;999.90;;;6.70;99.90;;;;;;5048271;28;20025;-69
2023/11/12 04:49:54;;;;;;;1999.90;999.90;;;6.70;99.90;;;;;;5051450;28;20039;-69
2023/11/12 04:52:20;;;;;;;1999.90;999.90;;;6.70;99.90;;;;;;5046944;28;20053;-69
2023/11/12 04:54:50;;;;;;;1999.90;999.90;;;6.70;99.90;;;;;;5048987;28;20029;-69
2023/11/12 04:57:16;;;;;;;1999.90;999.90;;;6.70;99.90;;;;;;5044289;28;20025;-69
2023/11/12 04:59:42;;;;;;;1999.90;999.90;;;6.80;99.90;;;;;;5047320;28;20120;-69
2023/11/12 05:02:10;;;;;;;1999.90;999.90;;;6.80;99.90;;;;;;5047002;28;20099;-70
2023/11/12 05:04:36;;;;;;;1999.90;999.90;;;6.80;99.90;;;;;;5042935;28;20108;-78
2023/11/12 05:07:02;;;;;;;1999.90;999.90;;;6.80;99.90;;;;;;5043317;28;20096;-69
2023/11/12 05:09:28;;;;;;;1999.90;999.90;;;6.80;99.90;;;;;;5041803;28;20087;-69
2023/11/12 05:11:54;;;;;;;1999.90;999.90;;;6.80;99.90;;;;;;5050117;28;20033;-69
2023/11/12 05:14:20;;;;;;;1999.90;999.90;;;6.80;99.90;;;;;;5051971;28;20063;-69
2023/11/12 05:16:47;;;;;;;1999.90;999.90;;;6.80;99.90;;;;;;5055352;28;20064;-69
2023/11/12 05:19:12;;;;;;;;;;;6.80;99.90;;;;;;5054135;28;20020;-77
2023/11/12 05:21:44;;;;;;;1999.90;999.90;;;6.80;99.90;;;;;;5051865;28;19911;-69
2023/11/12 05:24:09;;;;;;;1999.90;999.90;;;6.80;99.90;;;;;;5055490;28;20124;-69
2023/11/12 05:26:35;;;;;;;1999.90;999.90;;;6.80;99.90;;;;;;5053492;28;20108;-69
2023/11/12 05:29:03;;;;;;;1999.90;999.90;;;6.80;99.90;;;;;;5046850;28;20029;-77
2023/11/12 05:31:32;;;;;;;1999.90;999.90;;;6.80;99.90;;;;;;5053117;28;20470;-70
2023/11/12 05:33:58;;;;;;;1999.90;999.90;;;6.80;99.90;;;;;;5055129;28;20033;-69
2023/11/12 05:36:24;;;;;;;1999.90;999.90;;;6.70;99.90;;;;;;5053388;28;20059;-69
2023/11/12 05:38:50;;;;;;;1999.90;999.90;;;6.70;99.90;;;;;;5050699;28;20030;-78
2023/11/12 05:41:16;;;;;;;1999.90;999.90;;;6.70;99.90;;;;;;5050842;28;20047;-69
2023/11/12 05:43:42;;;;;;;1999.90;999.90;;;6.70;99.90;;;;;;5055026;28;20037;-68
2023/11/12 05:46:08;;;;;;;1999.90;999.90;;;6.70;99.90;;;;;;5053700;28;20112;-69
2023/11/12 05:48:34;;;;;;;1999.90;999.90;;;6.70;99.90;;;;;;5051352;28;20037;-69
2023/11/12 05:51:00;;;;;;;1999.90;999.90;;;6.70;99.90;;;;;;5053458;28;20053;-69
2023/11/12 05:53:26;;;;;;;1999.90;999.90;;;6.70;99.90;;;;;;5054015;28;20095;-69
2023/11/12 05:55:52;;;;;;;1999.90;999.90;;;6.70;99.90;;;;;;5054750;28;20036;-78
2023/11/12 05:58:18;;;;;;;1999.90;999.90;;;6.70;99.90;;;;;;5051912;28;20032;-69
2023/11/12 06:00:43;;;;;;;1999.90;999.90;;;6.70;99.90;;;;;;5046210;28;20035;-69
2023/11/12 06:03:09;;;;;;;1999.90;999.90;;;6.60;99.90;;;;;;5046891;28;20036;-69
2023/11/12 06:05:35;;;;;;;1999.90;999.90;;;6.60;99.90;;;;;;5046311;28;20029;-69
2023/11/12 06:08:03;;;;;;;1999.90;999.90;;;6.60;99.90;;;;;;5048396;28;20086;-78
2023/11/12 06:10:31;;;;;;;1999.90;999.90;;;6.70;99.90;;;;;;5043110;28;20049;-70
2023/11/12 06:12:57;;;;;;;1999.90;999.90;;;6.70;99.90;;;;;;5046922;28;20029;-69
2023/11/12 06:15:26;;;;;;;1999.90;999.90;;;6.60;99.90;;;;;;5053099;28;20055;-69
2023/11/12 06:17:54;;;;;;;1999.90;999.90;;;6.60;99.90;;;;;;5053432;28;20559;-69
2023/11/12 06:20:20;;;;;;;1999.90;999.90;;;6.60;99.90;;;;;;5047058;28;20057;-69
2023/11/12 06:22:46;;;;;;;1999.90;999.90;;;6.60;99.90;;;;;;5046722;28;20067;-69
2023/11/12 06:25:12;;;;;;;1999.90;999.90;;;6.60;99.90;;;;;;5054205;28;20060;-69
2023/11/12 06:27:39;;;;;;;1999.90;999.90;;;6.60;99.90;;;;;;5048117;28;20043;-69
2023/11/12 06:30:07;;;;;;;1999.90;999.90;;;6.60;99.90;;;;;;5050967;28;20041;-70
2023/11/12 06:32:34;;;;;;;1999.90;999.90;;;6.60;99.90;;;;;;5049423;28;20430;-69
2023/11/12 06:34:59;;;;;;;1999.90;999.90;;;6.60;99.90;;;;;;5045367;28;20427;-72
2023/11/12 06:37:26;;;;;;;1999.90;999.90;;;6.60;99.90;;;;;;5049640;28;20060;-69
2023/11/12 06:39:52;;;;;;;1999.90;999.90;;;6.60;99.90;;;;;;5051183;28;20020;-69
2023/11/12 06:42:18;;;;;;;1999.90;999.90;;;6.60;99.90;;;;;;5053996;28;20025;-69
2023/11/12 06:44:44;;;;;;;1999.90;999.90;;;6.60;99.90;;;;;;5053550;28;20120;-70
2023/11/12 06:47:09;;;;;;;1999.90;999.90;;;6.60;99.90;;;;;;5050762;28;20037;-68
2023/11/12 06:49:35;;;;;;;1999.90;999.90;;;6.60;99.90;;;;;;5044154;28;20040;-69
2023/11/12 06:52:01;;;;;;;1999.90;999.90;;;6.60;99.90;;;;;;5043928;28;20049;-77
2023/11/12 06:54:26;;;;;;;1999.90;999.90;;;6.60;99.90;;;;;;5053598;28;20033;-69
2023/11/12 06:56:54;;;;;;;1999.90;999.90;;;6.60;99.90;;;;;;5052831;28;20032;-69
2023/11/12 06:59:20;;;;;;;1999.90;999.90;;;6.60;99.90;;;;;;5052542;28;20153;-69
2023/11/12 07:01:47;;;;;;;1999.90;999.90;;;6.70;99.90;;;;;;5052664;28;20087;-69
2023/11/12 07:04:13;;;;;;;1999.90;999.90;;;6.70;99.90;;;;;;5053039;28;20029;-78
2023/11/12 07:06:38;;;;;;;1999.90;999.90;;;6.70;99.90;;;;;;5048056;28;20048;-69
2023/11/12 07:09:04;;;;;;;1999.90;999.90;;;6.60;99.90;;;;;;5045815;28;21063;-71
2023/11/12 07:11:30;;;;;;;1999.90;999.90;;;6.50;99.90;;;;;;5041181;28;20051;-69
2023/11/12 07:13:56;;;;;;;1999.90;999.90;;;6.60;99.90;;;;;;5047218;28;21457;-69
2023/11/12 07:16:23;;;;;;;1999.90;999.90;;;6.60;99.90;;;;;;5049848;28;20345;-69
2023/11/12 07:18:50;;;;;;;1999.90;999.90;;;6.60;99.90;;;;;;5042277;28;20353;-69
2023/11/12 07:21:24;;;;;;;1999.90;999.90;;;6.70;99.90;;;;;;5046996;28;20040;-69
2023/11/12 07:23:50;;;;;;;1999.90;999.90;;;6.70;99.90;;;;;;5043552;28;20371;-79
2023/11/12 07:26:16;;;;;;;1999.90;999.90;;;6.70;99.90;;;;;;5045765;28;20034;-69
2023/11/12 07:28:42;;;;;;;1999.90;999.90;;;6.70;99.90;;;;;;5041753;28;20060;-69
2023/11/12 07:31:08;;;;;;;1999.90;999.90;;;6.80;99.90;;;;;;5049306;28;20036;-69
2023/11/12 07:33:34;;;;;;;1999.90;999.90;;;6.80;99.90;;;;;;5040257;28;20035;-69
2023/11/12 07:36:00;;;;;;;1999.90;999.90;;;6.80;99.90;;;;;;5049454;28;20035;-76
2023/11/12 07:38:26;;;;;;;1999.90;999.90;;;6.90;99.90;;;;;;5044991;28;20274;-70
2023/11/12 07:40:52;;;;;;;1999.90;999.90;;;6.90;99.90;;;;;;5040953;28;20064;-69
2023/11/12 07:43:19;;;;;;;1999.90;999.90;;;7.00;99.90;;;;;;5043173;28;20029;-69
2023/11/12 07:45:45;;;;;;;1999.90;999.90;;;7.00;99.90;;;;;;5047968;28;20075;-69
2023/11/12 07:48:11;;;;;;;1999.90;999.90;;;7.10;99.90;;;;;;5046050;28;20025;-70
2023/11/12 07:50:38;;;;;;;1999.90;999.90;;;7.10;99.90;;;;;;5037500;28;20030;-70
2023/11/12 07:53:03;;;;;;;1999.90;999.90;;;7.10;99.90;;;;;;5047687;28;20037;-69
2023/11/12 07:55:29;;;;;;;1999.90;999.90;;;7.20;99.90;;;;;;5046651;28;20057;-69
2023/11/12 07:57:56;;;;;;;1999.90;999.90;;;7.20;99.90;;;;;;5049757;28;20064;-69
2023/11/12 08:00:22;;;;;;;1999.90;999.90;;;7.20;99.90;;;;;;5047454;28;20328;-69
2023/11/12 08:02:48;;;;;;;1999.90;999.90;;;7.30;99.90;;;;;;5047100;28;20029;-69
2023/11/12 08:05:14;;;;;;;1999.90;999.90;;;7.30;99.90;;;;;;5045684;28;20067;-69
2023/11/12 08:07:40;;;;;;;1999.90;999.90;;;7.40;99.90;;;;;;5049238;28;20083;-69
2023/11/12 08:10:08;;;;;;;1999.90;999.90;;;7.40;99.90;;;;;;5045257;28;20029;-70
2023/11/12 08:12:35;;;;;;;1999.90;999.90;;;7.30;99.90;;;;;;5046060;28;20407;-80
2023/11/12 08:15:01;;;;;;;1999.90;999.90;;;7.40;99.90;;;;;;5048105;28;20035;-78
2023/11/12 08:17:26;;;;;;;1999.90;999.90;;;7.50;99.90;;;;;;5051035;28;20437;-69
2023/11/12 08:19:52;;;;;;;1999.90;999.90;;;7.50;99.90;;;;;;5052735;28;20059;-69
2023/11/12 08:22:19;;;;;;;1999.90;999.90;;;7.60;99.90;;;;;;5041452;28;20029;-69
2023/11/12 08:24:44;;;;;;;1999.90;999.90;;;7.50;99.90;;;;;;5046781;28;20384;-69
2023/11/12 08:27:10;;;;;;;1999.90;999.90;;;7.50;99.90;;;;;;5060641;28;20430;-69
2023/11/12 08:29:36;;;;;;;1999.90;999.90;;;7.50;99.90;;;;;;5039138;28;20025;-69
2023/11/12 08:32:02;;;;;;;1999.90;999.90;;;7.60;99.90;;;;;;5059065;28;20319;-78
2023/11/12 08:34:27;;;;;;;1999.90;999.90;;;7.60;99.90;;;;;;5045356;28;20548;-69
2023/11/12 08:36:53;;;;;;;1999.90;999.90;;;7.60;99.90;;;;;;5036899;28;20032;-69
2023/11/12 08:39:19;;;;;;;1999.90;999.90;;;7.60;99.90;;;;;;5041281;28;20395;-78
2023/11/12 08:41:50;;;;;;;1999.90;999.90;;;7.70;99.90;;;;;;5050067;28;20032;-70
2023/11/12 08:44:16;;;;;;;1999.90;999.90;;;7.60;99.90;;;;;;5045750;28;20324;-69
2023/11/12 08:46:42;;;;;;;1999.90;999.90;;;7.70;99.90;;;;;;5043624;28;20041;-69
2023/11/12 08:49:08;;;;;;;1999.90;999.90;;;7.60;99.90;;;;;;5050080;28;20270;-69
2023/11/12 08:51:35;;;;;;;1999.90;999.90;;;7.60;99.90;;;;;;5044535;28;20499;-69
2023/11/12 08:54:01;;;;;;;1999.90;999.90;;;7.70;99.90;;;;;;5054853;28;20036;-69
2023/11/12 08:56:29;;;;;;;1999.90;999.90;;;7.60;99.90;;;;;;5043714;28;20029;-69
2023/11/12 08:58:56;;;;;;;1999.90;999.90;;;7.60;99.90;;;;;;5049010;28;20029;-69
2023/11/12 09:01:22;;;;;;;1999.90;999.90;;;7.60;99.90;;;;;;5049153;28;20029;-69
2023/11/12 09:03:47;;;;;;;1999.90;999.90;;;7.60;99.90;;;;;;5041671;28;20043;-69
2023/11/12 09:06:13;;;;;;;1999.90;999.90;;;7.70;99.90;;;;;;5040984;28;20033;-69
2023/11/12 09:08:39;;;;;;;1999.90;999.90;;;7.60;99.90;;;;;;5043440;28;20112;-69
2023/11/12 09:11:05;;;;;;;1999.90;999.90;;;7.60;99.90;;;;;;5032565;28;20033;-69
2023/11/12 09:13:31;;;;;;;1999.90;999.90;;;7.60;99.90;;;;;;5053922;28;20031;-69
2023/11/12 09:15:58;;;;;;;1999.90;999.90;;;7.60;99.90;;;;;;5053616;28;20443;-69
2023/11/12 09:18:24;;;;;;;1999.90;999.90;;;7.60;99.90;;;;;;5051987;28;20424;-68
2023/11/12 09:20:52;;;;;;;1999.90;999.90;;;7.70;99.90;;;;;;5047318;28;20029;-78
2023/11/12 09:23:18;;;;;;;1999.90;999.90;;;7.80;99.90;;;;;;5042759;28;20036;-69
2023/11/12 09:25:45;;;;;;;1999.90;999.90;;;7.90;99.90;;;;;;5045415;28;20029;-69
2023/11/12 09:28:11;;;;;;;;;;;8.00;99.90;;;;;;5045624;28;20074;-79
2023/11/12 09:30:37;;;;;;;1999.90;999.90;;;8.10;99.90;;;;;;5050178;28;19913;-69
2023/11/12 09:33:08;;;;;;;1999.90;999.90;;;8.20;99.90;;;;;;5045183;28;20033;-78
2023/11/12 09:35:34;;;;;;;1999.90;999.90;;;8.20;99.90;;;;;;5040340;28;20025;-69
2023/11/12 09:37:59;;;;;;;1999.90;999.90;;;8.30;99.90;;;;;;5048593;28;20033;-70
2023/11/12 09:40:29;;;;;;;1999.90;999.90;;;8.30;99.90;;;;;;5040584;28;20028;-69
2023/11/12 09:42:55;;;;;;;1999.90;999.90;;;8.20;99.90;;;;;;5035316;28;20021;-69
2023/11/12 09:45:23;;;;;;;1999.90;999.90;;;8.20;99.90;;;;;;5044230;28;20068;-69
2023/11/12 09:47:54;;;;;;;1999.90;999.90;;;8.10;99.90;;;;;;5044560;28;20041;-69
2023/11/12 09:50:25;;;;;;;1999.90;999.90;;;8.20;99.90;;;;;;5048042;28;20090;-69
2023/11/12 09:52:55;;;;;;;1999.90;999.90;;;8.30;99.90;;;;;;5044449;28;20098;-69
2023/11/12 09:55:21;;;;;;;1999.90;999.90;;;8.40;99.90;;;;;;5040746;28;20444;-69
2023/11/12 09:57:48;;;;;;;1999.90;999.90;;;8.30;99.90;;;;;;5042897;28;20041;-69
2023/11/12 10:00:16;;;;;;;1999.90;999.90;;;8.30;99.90;;;;;;5036103;28;20123;-69
2023/11/12 10:02:44;;;;;;;1999.90;999.90;;;8.30;99.90;;;;;;5039797;28;20033;-69
2023/11/12 10:05:10;;;;;;;1999.90;999.90;;;8.40;99.90;;;;;;5043554;28;20036;-69
2023/11/12 10:07:46;;;;;;;1999.90;999.90;;;8.50;99.90;;;;;;5048257;28;20034;-69
2023/11/12 10:10:34;;;;;;;1999.90;999.90;;;8.60;99.90;;;;;;5047816;28;20627;-69
2023/11/12 10:13:04;;;;;;;1999.90;999.90;;;8.60;99.90;;;;;;5040258;28;20036;-79
2023/11/12 10:15:33;;;;;;;1999.90;999.90;;;8.60;99.90;;;;;;5045496;28;20044;-69
2023/11/12 10:17:59;;;;;;;1999.90;999.90;;;8.60;99.90;;;;;;5042099;28;20024;-69
2023/11/12 10:20:27;;;;;;;1999.90;999.90;;;8.60;99.90;;;;;;5046434;28;20025;-69
2023/11/12 10:22:53;;;;;;;1999.90;999.90;;;8.70;99.90;;;;;;5045106;28;20025;-69
2023/11/12 10:25:37;;;;;;;1999.90;999.90;;;8.80;99.90;;;;;;5043207;28;20429;-69
2023/11/12 10:28:06;;;;;;;1999.90;999.90;;;8.90;99.90;;;;;;5043517;28;20041;-79
2023/11/12 10:30:33;;;;;;;1999.90;999.90;;;9.00;99.90;;;;;;5051687;28;20033;-69
2023/11/12 10:33:20;;;;;;;1999.90;999.90;;;9.00;99.90;;;;;;5053572;28;20427;-69
2023/11/12 10:35:47;;;;;;;1999.90;999.90;;;9.00;99.90;;;;;;5038511;28;20048;-69
2023/11/12 10:38:17;;;;;;;1999.90;999.90;;;9.00;99.90;;;;;;5045266;28;20026;-69
2023/11/12 10:41:02;;;;;;;1999.90;999.90;;;9.00;99.90;;;;;;5038454;28;20025;-69
2023/11/12 10:43:29;;;;;;;1999.90;999.90;;;9.00;99.90;;;;;;5037098;28;20672;-69
2023/11/12 10:46:04;;;;;;;1999.90;999.90;;;9.00;99.90;;;;;;5049695;28;20033;-69
2023/11/12 10:48:35;;;;;;;1999.90;999.90;;;9.00;99.90;;;;;;5052548;28;20022;-69
2023/11/12 10:51:03;;;;;;;1999.90;999.90;;;9.00;99.90;;;;;;5049658;28;20199;-70
2023/11/12 10:53:30;;;;;;;1999.90;999.90;;;9.00;99.90;;;;;;5047144;28;20032;-69
2023/11/12 10:55:58;;;;;;;;;;;9.10;99.90;;;;;;5049871;28;20568;-69
2023/11/12 10:58:26;;;;;;;1999.90;999.90;;;9.10;99.90;;;;;;5052261;28;20000;-69
2023/11/12 11:01:01;;;;;;;1999.90;999.90;;;9.00;99.90;;;;;;5054449;28;20021;-69
2023/11/12 11:03:29;;;;;;;1999.90;999.90;;;9.00;99.90;;;;;;5044955;28;20062;-69
2023/11/12 11:05:57;;;;;;;1999.90;999.90;;;9.00;99.90;;;;;;5052832;28;20032;-69
2023/11/12 11:08:30;;;;;;;1999.90;999.90;;;9.10;99.90;;;;;;5042736;28;20032;-69
2023/11/12 11:11:02;;;;;;;1999.90;999.90;;;9.20;99.90;;;;;;5037154;28;20025;-69
2023/11/12 11:13:28;;;;;;;1999.90;999.90;;;9.30;99.90;;;;;;5039645;28;20061;-68
2023/11/12 11:15:58;;;;;;;1999.90;999.90;;;9.40;99.90;;;;;;5034644;28;20127;-71
2023/11/12 11:18:38;;;;;;;1999.90;999.90;;;9.60;99.90;;;;;;5046798;28;20030;-70
2023/11/12 11:21:06;;;;;;;1999.90;999.90;;;9.60;99.90;;;;;;5044600;28;20052;-69
2023/11/12 11:23:41;;;;;;;1999.90;999.90;;;9.60;99.90;;;;;;5042363;28;20112;-79
2023/11/12 11:26:27;;;;;;;1999.90;999.90;;;9.80;99.90;;;;;;5044057;28;20416;-70
2023/11/12 11:29:07;;;;;;;1999.90;999.90;;;9.80;99.90;;;;;;5040237;28;20417;-69
2023/11/12 11:31:37;;;;;;;1999.90;999.90;;;9.90;99.90;;;;;;5039856;28;20021;-69
2023/11/12 11:34:04;;;;;;;1999.90;999.90;;;9.90;99.90;;;;;;5042207;28;20017;-79
2023/11/12 11:36:31;;;;;;;1999.90;999.90;;;9.90;99.90;;;;;;5039279;28;20052;-70
2023/11/12 11:39:25;;;;;;;1999.90;999.90;;;10.00;99.90;;;;;;5044461;28;20025;-69
2023/11/12 11:41:51;;;;;;;1999.90;999.90;;;10.10;99.90;;;;;;5039349;28;20034;-70
2023/11/12 11:44:33;;;;;;;1999.90;999.90;;;10.20;99.90;;;;;;5042184;28;20092;-69
2023/11/12 11:47:13;;;;;;;1999.90;999.90;;;10.30;99.90;;;;;;5046498;28;20030;-69
2023/11/12 11:49:46;;;;;;;1999.90;999.90;;;10.40;99.90;;;;;;5046944;28;20297;-70
2023/11/12 11:52:24;;;;;;;1999.90;999.90;;;10.40;99.90;;;;;;5041315;28;20046;-78
2023/11/12 11:55:02;;;;;;;1999.90;999.90;;;10.30;99.90;;;;;;5039386;28;20040;-69
2023/11/12 11:57:29;;;;;;;1999.90;999.90;;;10.10;99.90;;;;;;5041221;28;20097;-69
2023/11/12 11:59:56;;;;;;;1999.90;999.90;;;10.00;99.90;;;;;;5048756;28;20110;-70
2023/11/12 12:02:23;;;;;;;1999.90;999.90;;;9.90;99.90;;;;;;5044092;28;20026;-69
2023/11/12 12:04:59;;;;;;;1999.90;999.90;;;9.90;99.90;;;;;;5045806;28;20136;-69
2023/11/12 12:07:32;;;;;;;1999.90;999.90;;;9.90;99.90;;;;;;5048370;28;20170;-70
2023/11/12 12:09:58;;;;;;;1999.90;999.90;;;9.90;99.90;;;;;;5054711;28;20040;-69
2023/11/12 12:12:24;;;;;;;1999.90;999.90;;;10.00;99.90;;;;;;5047316;28;20110;-69